Time,TemperatureF,DewpointF,PressureIn,WindDirection,WindDirectionDegrees,WindSpeedMPH,WindSpeedGustMPH,Humidity,HourlyPrecipIn,Conditions,Clouds,dailyrainin,SoftwareType,DateUTC
2013-08-23 00:03:00,64.8,55.0,29.87,WNW,287,0.0,4.0,71,0.00,,,0.00,weatherlink.com 1.10,2013-08-23 07:03:00,
2013-08-23 00:18:00,64.0,56.0,29.87,North,354,0.0,3.0,75,0.00,,,0.00,weatherlink.com 1.10,2013-08-23 07:18:00,
2013-08-23 00:33:00,63.3,56.0,29.87,NW,311,1.0,7.0,78,0.00,,,0.00,weatherlink.com 1.10,2013-08-23 07:33:00,
2013-08-23 00:48:00,62.7,56.0,29.88,NNE,30,2.0,5.0,80,0.00,,,0.00,weatherlink.com 1.10,2013-08-23 07:48:00,
2013-08-23 01:03:00,62.0,57.0,29.88,ENE,65,2.0,4.0,83,0.00,,,0.00,weatherlink.com 1.10,2013-08-23 08:03:00,
2013-08-23 01:18:00,61.4,57.0,29.89,NNW,333,2.0,4.0,85,0.00,,,0.00,weatherlink.com 1.10,2013-08-23 08:18:00,
2013-08-23 01:33:00,61.2,57.0,29.89,NW,323,1.0,5.0,86,0.00,,,0.00,weatherlink.com 1.10,2013-08-23 08:33:00,
2013-08-23 01:48:00,60.7,57.0,29.89,West,261,0.0,2.0,88,0.00,,,0.00,weatherlink.com 1.10,2013-08-23 08:48:00,
2013-08-23 02:03:00,60.1,57.0,29.89,NW,325,5.0,8.0,89,0.01,,,0.01,weatherlink.com 1.10,2013-08-23 09:03:00,
2013-08-23 02:18:00,59.9,57.0,29.88,NNW,328,0.0,5.0,90,0.01,,,0.01,weatherlink.com 1.10,2013-08-23 09:18:00,
2013-08-23 02:33:00,59.7,57.0,29.88,NNE,18,1.0,6.0,91,0.01,,,0.01,weatherlink.com 1.10,2013-08-23 09:33:00,
2013-08-23 02:48:00,59.8,57.0,29.88,NW,326,2.0,5.0,91,0.00,,,0.01,weatherlink.com 1.10,2013-08-23 09:48:00,
2013-08-23 03:03:00,60.0,57.0,29.88,North,6,4.0,8.0,91,0.00,,,0.01,weatherlink.com 1.10,2013-08-23 10:03:00,
2013-08-23 03:18:00,59.9,57.0,29.88,NNE,15,1.0,5.0,91,0.00,,,0.01,weatherlink.com 1.10,2013-08-23 10:18:00,
2013-08-23 03:33:00,59.8,58.0,29.88,NW,321,1.0,3.0,92,0.00,,,0.01,weatherlink.com 1.10,2013-08-23 10:33:00,
2013-08-23 03:48:00,59.7,57.0,29.88,NNW,328,2.0,7.0,92,0.00,,,0.01,weatherlink.com 1.10,2013-08-23 10:48:00,
2013-08-23 04:03:00,59.5,58.0,29.88,WNW,291,1.0,7.0,93,0.00,,,0.01,weatherlink.com 1.10,2013-08-23 11:03:00,
2013-08-23 04:18:00,59.6,58.0,29.88,WNW,286,0.0,5.0,93,0.00,,,0.01,weatherlink.com 1.10,2013-08-23 11:18:00,
2013-08-23 04:33:00,59.6,58.0,29.88,NE,34,3.0,7.0,93,0.00,,,0.01,weatherlink.com 1.10,2013-08-23 11:33:00,
2013-08-23 04:48:00,59.7,57.0,29.87,WNW,288,0.0,3.0,92,0.00,,,0.01,weatherlink.com 1.10,2013-08-23 11:48:00,
2013-08-23 05:03:00,59.6,57.0,29.87,NNW,345,0.0,5.0,92,0.00,,,0.01,weatherlink.com 1.10,2013-08-23 12:03:00,
2013-08-23 05:18:00,59.5,57.0,29.86,NW,321,1.0,7.0,92,0.00,,,0.01,weatherlink.com 1.10,2013-08-23 12:18:00,
2013-08-23 05:33:00,59.2,57.0,29.87,NNW,347,0.0,1.0,93,0.00,,,0.01,weatherlink.com 1.10,2013-08-23 12:33:00,
2013-08-23 05:48:00,59.1,57.0,29.87,NW,319,0.0,3.0,93,0.00,,,0.01,weatherlink.com 1.10,2013-08-23 12:48:00,
2013-08-23 06:03:00,59.2,57.0,29.87,NNW,331,1.0,2.0,93,0.00,,,0.01,weatherlink.com 1.10,2013-08-23 13:03:00,
2013-08-23 06:18:00,59.5,58.0,29.87,NNW,348,0.0,4.0,93,0.00,,,0.01,weatherlink.com 1.10,2013-08-23 13:18:00,
2013-08-23 06:33:00,59.6,58.0,29.87,WNW,284,0.0,2.0,93,0.00,,,0.01,weatherlink.com 1.10,2013-08-23 13:33:00,
2013-08-23 06:49:00,59.7,58.0,29.87,NW,323,0.0,1.0,93,0.00,,,0.01,weatherlink.com 1.10,2013-08-23 13:49:00,
2013-08-23 07:03:00,59.8,58.0,29.88,West,263,1.0,2.0,93,0.00,,,0.01,weatherlink.com 1.10,2013-08-23 14:03:00,
2013-08-23 07:18:00,59.9,58.0,29.88,NW,309,1.0,2.0,93,0.00,,,0.01,weatherlink.com 1.10,2013-08-23 14:18:00,
2013-08-23 07:33:00,60.1,58.0,29.89,NW,316,0.0,2.0,93,0.00,,,0.01,weatherlink.com 1.10,2013-08-23 14:33:00,
2013-08-23 07:48:00,60.0,58.0,29.89,WNW,285,2.0,3.0,92,0.00,,,0.01,weatherlink.com 1.10,2013-08-23 14:48:00,
2013-08-23 08:03:00,60.0,58.0,29.90,WNW,285,2.0,3.0,92,0.00,,,0.01,weatherlink.com 1.10,2013-08-23 15:03:00,
2013-08-23 08:19:00,60.1,58.0,29.90,NW,323,0.0,1.0,92,0.00,,,0.01,weatherlink.com 1.10,2013-08-23 15:19:00,
2013-08-23 08:34:00,60.6,58.0,29.90,North,350,0.0,2.0,91,0.00,,,0.01,weatherlink.com 1.10,2013-08-23 15:34:00,
2013-08-23 08:52:00,60.8,58.0,29.90,WNW,284,0.0,1.0,90,0.00,,,0.01,weatherlink.com 1.10,2013-08-23 15:52:00,
2013-08-23 09:04:00,61.1,58.0,29.90,West,276,0.0,1.0,90,0.00,,,0.01,weatherlink.com 1.10,2013-08-23 16:04:00,
2013-08-23 09:19:00,61.1,58.0,29.90,West,260,0.0,1.0,89,0.00,,,0.01,weatherlink.com 1.10,2013-08-23 16:19:00,
2013-08-23 09:34:00,61.1,58.0,29.90,ESE,119,0.0,2.0,88,0.00,,,0.01,weatherlink.com 1.10,2013-08-23 16:34:00,
2013-08-23 09:49:00,61.1,58.0,29.91,SW,229,0.0,1.0,88,0.00,,,0.01,weatherlink.com 1.10,2013-08-23 16:49:00,
2013-08-23 10:04:00,60.9,57.0,29.91,SE,145,0.0,2.0,88,0.00,,,0.01,weatherlink.com 1.10,2013-08-23 17:04:00,
2013-08-23 10:19:00,61.1,57.0,29.91,SW,224,0.0,1.0,87,0.00,,,0.01,weatherlink.com 1.10,2013-08-23 17:19:00,
2013-08-23 10:34:00,61.3,57.0,29.91,SW,224,0.0,1.0,87,0.00,,,0.01,weatherlink.com 1.10,2013-08-23 17:34:00,
2013-08-23 11:04:00,62.1,58.0,29.92,NNE,25,2.0,2.0,85,0.00,,,0.01,weatherlink.com 1.10,2013-08-23 18:04:00,
2013-08-23 11:19:00,62.6,58.0,29.91,SSE,157,0.0,1.0,86,0.00,,,0.01,weatherlink.com 1.10,2013-08-23 18:19:00,
2013-08-23 11:34:00,63.8,58.0,29.92,WSW,245,0.0,3.0,82,0.00,,,0.01,weatherlink.com 1.10,2013-08-23 18:34:00,
2013-08-23 11:49:00,64.3,59.0,29.92,SSE,153,1.0,4.0,82,0.00,,,0.01,weatherlink.com 1.10,2013-08-23 18:49:00,
2013-08-23 12:04:00,64.9,59.0,29.92,WSW,253,3.0,3.0,80,0.00,,,0.01,weatherlink.com 1.10,2013-08-23 19:04:00,
2013-08-23 12:19:00,64.6,59.0,29.92,North,5,0.0,4.0,81,0.00,,,0.01,weatherlink.com 1.10,2013-08-23 19:19:00,
2013-08-23 12:36:00,64.7,59.0,29.92,SE,129,1.0,7.0,82,0.00,,,0.01,weatherlink.com 1.10,2013-08-23 19:36:00,
2013-08-23 12:49:00,65.9,59.0,29.92,SE,131,0.0,9.0,79,0.00,,,0.01,weatherlink.com 1.10,2013-08-23 19:49:00,
2013-08-23 13:04:00,65.6,59.0,29.92,ESE,110,1.0,5.0,79,0.00,,,0.01,weatherlink.com 1.10,2013-08-23 20:04:00,
2013-08-23 13:19:00,66.4,59.0,29.92,SE,129,3.0,5.0,78,0.00,,,0.01,weatherlink.com 1.10,2013-08-23 20:19:00,
2013-08-23 13:34:00,66.5,59.0,29.91,SE,129,0.0,5.0,78,0.00,,,0.01,weatherlink.com 1.10,2013-08-23 20:34:00,
2013-08-23 13:49:00,67.9,60.0,29.91,SSW,207,2.0,6.0,77,0.00,,,0.01,weatherlink.com 1.10,2013-08-23 20:49:00,
2013-08-23 14:04:00,68.9,60.0,29.91,SSE,149,3.0,4.0,72,0.00,,,0.01,weatherlink.com 1.10,2013-08-23 21:04:00,
2013-08-23 14:19:00,70.5,59.0,29.90,ESE,111,1.0,9.0,68,0.00,,,0.01,weatherlink.com 1.10,2013-08-23 21:19:00,
2013-08-23 14:34:00,72.1,60.0,29.90,SE,139,6.0,7.0,65,0.00,,,0.01,weatherlink.com 1.10,2013-08-23 21:34:00,
2013-08-23 14:49:00,70.5,59.0,29.89,SSW,211,1.0,6.0,66,0.00,,,0.01,weatherlink.com 1.10,2013-08-23 21:49:00,
2013-08-23 15:04:00,71.0,58.0,29.89,West,274,0.0,8.0,64,0.00,,,0.01,weatherlink.com 1.10,2013-08-23 22:04:00,
2013-08-23 15:19:00,72.4,59.0,29.89,SW,229,4.0,6.0,62,0.00,,,0.01,weatherlink.com 1.10,2013-08-23 22:19:00,
2013-08-23 15:34:00,72.9,58.0,29.88,SE,134,0.0,6.0,60,0.00,,,0.01,weatherlink.com 1.10,2013-08-23 22:34:00,
2013-08-23 15:49:00,72.3,58.0,29.88,WSW,243,5.0,5.0,61,0.00,,,0.01,weatherlink.com 1.10,2013-08-23 22:49:00,
2013-08-23 16:04:00,71.8,58.0,29.88,SE,141,3.0,4.0,62,0.00,,,0.01,weatherlink.com 1.10,2013-08-23 23:04:00,
2013-08-23 16:34:00,72.1,58.0,29.88,SE,143,0.0,3.0,61,0.00,,,0.01,weatherlink.com 1.10,2013-08-23 23:34:00,
2013-08-23 16:49:00,72.2,58.0,29.87,SE,141,2.0,6.0,62,0.00,,,0.01,weatherlink.com 1.10,2013-08-23 23:49:00,
2013-08-23 17:04:00,72.0,59.0,29.87,NW,304,0.0,4.0,63,0.00,,,0.01,weatherlink.com 1.10,2013-08-24 00:04:00,
2013-08-23 17:19:00,72.2,58.0,29.87,ESE,111,1.0,3.0,61,0.00,,,0.01,weatherlink.com 1.10,2013-08-24 00:19:00,
2013-08-23 17:34:00,72.2,58.0,29.87,South,190,1.0,3.0,62,0.00,,,0.01,weatherlink.com 1.10,2013-08-24 00:34:00,
2013-08-23 17:49:00,71.7,58.0,29.87,WNW,290,0.0,2.0,63,0.00,,,0.01,weatherlink.com 1.10,2013-08-24 00:49:00,
2013-08-23 18:04:00,71.5,59.0,29.87,West,264,0.0,1.0,64,0.00,,,0.01,weatherlink.com 1.10,2013-08-24 01:04:00,
2013-08-23 18:19:00,71.0,59.0,29.86,SSW,211,0.0,2.0,65,0.00,,,0.01,weatherlink.com 1.10,2013-08-24 01:19:00,
2013-08-23 18:34:00,71.0,59.0,29.86,NW,309,1.0,5.0,66,0.00,,,0.01,weatherlink.com 1.10,2013-08-24 01:34:00,
2013-08-23 18:49:00,70.1,59.0,29.86,NW,316,3.0,5.0,69,0.00,,,0.01,weatherlink.com 1.10,2013-08-24 01:49:00,
2013-08-23 19:04:00,68.7,59.0,29.86,NW,308,2.0,6.0,71,0.00,,,0.01,weatherlink.com 1.10,2013-08-24 02:04:00,
2013-08-23 19:19:00,68.2,59.0,29.86,ENE,64,0.0,5.0,72,0.00,,,0.01,weatherlink.com 1.10,2013-08-24 02:19:00,
2013-08-23 19:34:00,67.4,58.0,29.86,NNE,30,1.0,7.0,73,0.00,,,0.01,weatherlink.com 1.10,2013-08-24 02:34:00,
2013-08-23 19:49:00,66.7,58.0,29.86,North,6,0.0,4.0,74,0.00,,,0.01,weatherlink.com 1.10,2013-08-24 02:49:00,
2013-08-23 20:04:00,65.7,58.0,29.86,NNE,32,0.0,2.0,76,0.00,,,0.01,weatherlink.com 1.10,2013-08-24 03:04:00,
2013-08-23 20:19:00,64.7,58.0,29.86,NW,304,1.0,7.0,78,0.00,,,0.01,weatherlink.com 1.10,2013-08-24 03:19:00,
2013-08-23 20:34:00,63.9,57.0,29.87,NW,316,5.0,8.0,79,0.00,,,0.01,weatherlink.com 1.10,2013-08-24 03:34:00,
2013-08-23 20:49:00,63.3,57.0,29.87,NNE,12,2.0,8.0,81,0.00,,,0.01,weatherlink.com 1.10,2013-08-24 03:49:00,
2013-08-23 21:04:00,62.8,57.0,29.88,NE,39,3.0,7.0,82,0.00,,,0.01,weatherlink.com 1.10,2013-08-24 04:04:00,
2013-08-23 21:19:00,62.5,57.0,29.88,NNW,333,8.0,9.0,83,0.00,,,0.01,weatherlink.com 1.10,2013-08-24 04:19:00,
2013-08-23 21:34:00,62.2,57.0,29.88,NNE,30,0.0,6.0,84,0.00,,,0.01,weatherlink.com 1.10,2013-08-24 04:34:00,
2013-08-23 21:49:00,61.9,57.0,29.88,NNW,330,2.0,7.0,85,0.00,,,0.01,weatherlink.com 1.10,2013-08-24 04:49:00,
2013-08-23 22:05:00,61.8,57.0,29.88,WNW,301,1.0,8.0,85,0.00,,,0.01,weatherlink.com 1.10,2013-08-24 05:05:00,
2013-08-23 22:19:00,61.7,58.0,29.88,NNW,333,3.0,4.0,86,0.00,,,0.01,weatherlink.com 1.10,2013-08-24 05:19:00,
2013-08-23 22:34:00,61.5,57.0,29.88,North,8,3.0,6.0,86,0.00,,,0.01,weatherlink.com 1.10,2013-08-24 05:34:00,
2013-08-23 22:49:00,61.5,57.0,29.88,NNW,330,2.0,7.0,86,0.00,,,0.01,weatherlink.com 1.10,2013-08-24 05:49:00,
2013-08-23 23:05:00,61.7,58.0,29.88,NNE,22,1.0,8.0,86,0.00,,,0.01,weatherlink.com 1.10,2013-08-24 06:05:00,
2013-08-23 23:19:00,61.8,57.0,29.88,NNW,333,4.0,6.0,85,0.00,,,0.01,weatherlink.com 1.10,2013-08-24 06:19:00,
2013-08-23 23:35:00,62.1,57.0,29.88,North,356,0.0,10.0,84,0.00,,,0.01,weatherlink.com 1.10,2013-08-24 06:35:00,
2013-08-23 23:50:00,62.1,57.0,29.88,NNW,333,3.0,7.0,84,0.00,,,0.01,weatherlink.com 1.10,2013-08-24 06:50:00,